createdAt,value
2023-01-03T00:02:18.169Z,46.67
2023-01-03T00:04:50.672Z,46.97
2023-01-03T00:07:34.321Z,52.92
2023-01-03T00:10:10.942Z,50.65
2023-01-03T00:12:38.615Z,49.13
2023-01-03T00:15:14.585Z,56.00
2023-01-03T00:17:44.822Z,61.13
2023-01-03T00:20:16.676Z,66.78
2023-01-03T00:22:46.905Z,72.55
2023-01-03T00:25:17.533Z,68.85
2023-01-03T00:27:47.699Z,73.88
2023-01-03T00:30:22.247Z,71.55
2023-01-03T00:32:52.413Z,63.85
2023-01-03T00:35:22.598Z,62.58
2023-01-03T00:37:52.805Z,65.70
2023-01-03T00:40:25.502Z,63.78
2023-01-03T00:43:08.173Z,61.97
2023-01-03T00:45:41.569Z,61.03
2023-01-03T00:48:11.806Z,70.30
2023-01-03T00:50:42.003Z,64.43
2023-01-03T00:53:12.166Z,65.05
2023-01-03T00:55:42.406Z,61.05
2023-01-03T00:58:12.628Z,56.92
2023-01-03T01:00:47.701Z,61.65
2023-01-03T01:03:18.330Z,74.18
2023-01-03T01:05:48.823Z,82.18
2023-01-03T01:08:21.201Z,80.03
2023-01-03T01:11:04.379Z,120.45
2023-01-03T01:13:36.080Z,95.65
2023-01-03T01:16:11.656Z,125.72
2023-01-03T01:18:42.787Z,84.72
2023-01-03T01:21:16.962Z,72.85
2023-01-03T01:23:48.312Z,73.80
2023-01-03T01:26:20.817Z,83.15
2023-01-03T01:28:51.805Z,91.88
2023-01-03T01:31:27.774Z,126.55
2023-01-03T01:33:59.046Z,99.35
2023-01-03T01:36:31.557Z,95.47
2023-01-03T01:39:03.747Z,84.68
2023-01-03T01:41:48.006Z,96.25
2023-01-03T01:47:19.698Z,87.95
2023-01-03T01:49:52.577Z,60.35
2023-01-03T01:52:24.175Z,66.53
2023-01-03T01:54:56.418Z,69.75
2023-01-03T01:57:28.454Z,63.53
2023-01-03T01:59:59.251Z,65.85
2023-01-03T02:02:32.181Z,63.72
2023-01-03T02:05:05.226Z,50.27
2023-01-03T02:07:38.323Z,49.45
2023-01-03T02:10:10.677Z,42.70
2023-01-03T02:12:56.434Z,43.33
2023-01-03T02:15:38.221Z,38.10
2023-01-03T02:18:25.205Z,42.80
2023-01-03T02:21:23.412Z,43.45
2023-01-03T02:24:14.350Z,44.28
2023-01-03T02:26:58.293Z,37.75
2023-01-03T02:29:55.857Z,38.30
2023-01-03T02:32:39.560Z,36.67
2023-01-03T02:35:18.112Z,39.08
2023-01-03T02:37:58.210Z,39.22
2023-01-03T02:40:36.544Z,36.45
2023-01-03T02:43:11.257Z,38.05
2023-01-03T02:45:55.865Z,34.13
2023-01-03T02:48:37.535Z,40.25
2023-01-03T02:51:13.334Z,39.70
2023-01-03T02:53:49.298Z,40.22
2023-01-03T02:56:24.532Z,49.85
2023-01-03T02:58:59.730Z,43.58
2023-01-03T03:01:32.196Z,48.63
2023-01-03T03:04:07.003Z,44.38
2023-01-03T03:06:46.177Z,41.55
2023-01-03T03:09:16.400Z,37.15
2023-01-03T03:11:59.718Z,31.65
2023-01-03T03:14:36.772Z,40.57
2023-01-03T03:17:11.666Z,35.60
2023-01-03T03:20:03.155Z,34.47
2023-01-03T03:22:55.236Z,32.33
2023-01-03T03:25:29.749Z,31.52
2023-01-03T03:28:16.046Z,35.75
2023-01-03T03:30:49.063Z,32.78
2023-01-03T03:33:22.850Z,30.98
2023-01-03T03:36:00.478Z,32.17
2023-01-03T03:38:36.496Z,33.50
2023-01-03T03:41:30.047Z,32.10
2023-01-03T03:44:22.437Z,30.70
2023-01-03T03:47:04.282Z,32.28
2023-01-03T03:49:40.842Z,31.48
2023-01-03T03:52:19.018Z,32.20
2023-01-03T03:54:56.457Z,36.17
2023-01-03T03:57:31.832Z,34.08
2023-01-03T04:00:11.816Z,35.05
2023-01-03T04:02:44.312Z,34.70
2023-01-03T04:05:16.999Z,38.88
2023-01-03T04:07:50.291Z,37.65
2023-01-03T04:12:55.184Z,39.58
2023-01-03T04:15:25.535Z,34.03
2023-01-03T04:17:55.844Z,39.45
2023-01-03T04:20:26.783Z,42.38
2023-01-03T04:22:59.718Z,39.90
2023-01-03T04:25:30.601Z,36.45
2023-01-03T04:28:00.850Z,37.58
2023-01-03T04:30:31.955Z,41.78
2023-01-03T04:33:05.088Z,39.38
2023-01-03T04:35:35.549Z,39.83
2023-01-03T04:38:09.210Z,38.65
2023-01-03T04:40:41.408Z,40.22
2023-01-03T04:43:24.882Z,38.42
2023-01-03T04:45:55.211Z,41.55
2023-01-03T04:48:25.514Z,42.95
2023-01-03T04:50:56.322Z,38.60
2023-01-03T04:53:30.189Z,38.92
2023-01-03T04:58:30.342Z,39.78
2023-01-03T05:01:03.387Z,40.17
2023-01-03T05:03:34.152Z,41.57
2023-01-03T05:06:04.502Z,37.83
2023-01-03T05:08:39.669Z,41.30
2023-01-03T05:11:10.586Z,42.53
2023-01-03T05:13:40.828Z,44.88
2023-01-03T05:16:13.169Z,45.67
2023-01-03T05:18:43.748Z,43.15
2023-01-03T05:21:30.289Z,47.78
2023-01-03T05:24:15.665Z,46.47
2023-01-03T05:26:46.848Z,49.05
2023-01-03T05:29:21.596Z,47.58
2023-01-03T05:31:52.278Z,58.28
2023-01-03T05:34:22.713Z,59.88
2023-01-03T05:36:52.950Z,72.78
2023-01-03T05:39:25.805Z,56.65
2023-01-03T05:42:05.039Z,58.00
2023-01-03T05:44:37.209Z,58.72
2023-01-03T05:47:08.369Z,71.90
2023-01-03T05:49:39.146Z,79.68
2023-01-03T05:52:09.686Z,63.50
2023-01-03T05:54:42.523Z,72.82
2023-01-03T05:57:12.884Z,89.53
2023-01-03T05:59:43.884Z,82.95
2023-01-03T06:02:14.291Z,76.80
2023-01-03T06:04:44.543Z,85.82
2023-01-03T06:07:14.820Z,101.05
2023-01-03T06:09:52.911Z,103.10
2023-01-03T06:12:23.121Z,65.75
2023-01-03T06:14:53.467Z,109.30
2023-01-03T06:17:35.987Z,82.35
2023-01-03T06:20:08.278Z,77.40
2023-01-03T06:22:39.516Z,69.30
2023-01-03T06:25:12.983Z,65.78
2023-01-03T06:27:45.286Z,55.15
2023-01-03T06:30:16.341Z,60.15
2023-01-03T06:32:47.701Z,58.17
2023-01-03T06:35:18.119Z,67.85
2023-01-03T06:37:48.317Z,89.82
2023-01-03T06:40:21.925Z,70.13
2023-01-03T06:42:52.132Z,69.28
2023-01-03T06:45:34.675Z,161.13
2023-01-03T06:48:22.490Z,99.00
2023-01-03T06:51:05.362Z,97.45
2023-01-03T06:53:37.830Z,159.90
2023-01-03T06:56:11.735Z,133.45
2023-01-03T06:58:42.159Z,164.82
2023-01-03T07:01:12.445Z,199.50
2023-01-03T07:03:42.899Z,189.27
2023-01-03T07:06:13.171Z,179.68
2023-01-03T07:08:48.103Z,253.52
2023-01-03T07:11:23.911Z,231.27
2023-01-03T07:14:02.532Z,314.48
2023-01-03T07:16:34.890Z,354.38
2023-01-03T07:19:05.590Z,323.65
2023-01-03T07:21:36.872Z,174.48
2023-01-03T07:24:09.346Z,148.40
2023-01-03T07:26:42.802Z,89.38
2023-01-03T07:29:14.106Z,111.47
2023-01-03T07:31:45.059Z,89.75
2023-01-03T07:34:15.302Z,114.68
2023-01-03T07:36:45.582Z,89.13
2023-01-03T07:39:16.026Z,99.45
2023-01-03T07:42:01.587Z,85.18
2023-01-03T07:44:31.779Z,74.40
2023-01-03T07:47:02.014Z,66.15
2023-01-03T07:49:32.827Z,65.38
2023-01-03T07:52:03.059Z,60.72
2023-01-03T07:54:33.499Z,70.03
2023-01-03T07:57:06.327Z,60.50
2023-01-03T07:59:37.026Z,65.28
2023-01-03T08:02:07.416Z,64.85
2023-01-03T08:04:37.859Z,62.50
2023-01-03T08:07:08.035Z,63.92
2023-01-03T08:09:50.745Z,64.00
2023-01-03T08:12:35.906Z,68.68
2023-01-03T08:15:06.667Z,64.45
2023-01-03T08:17:36.950Z,62.35
2023-01-03T08:20:12.556Z,63.28
2023-01-03T08:22:42.856Z,67.88
2023-01-03T08:25:13.054Z,55.28
2023-01-03T08:27:50.222Z,67.93
2023-01-03T08:30:24.018Z,66.18
2023-01-03T08:32:55.283Z,63.22
2023-01-03T08:35:29.351Z,67.97
2023-01-03T08:38:04.401Z,62.67
2023-01-03T08:40:42.194Z,64.63
2023-01-03T08:43:17.473Z,62.03
2023-01-03T08:45:47.895Z,58.35
2023-01-03T08:48:19.934Z,61.15
2023-01-03T08:50:51.007Z,54.88
2023-01-03T08:53:23.058Z,65.28
2023-01-03T08:55:53.290Z,64.90
2023-01-03T08:58:26.056Z,63.50
2023-01-03T09:00:56.340Z,63.60
2023-01-03T09:03:26.690Z,53.70
2023-01-03T09:05:57.150Z,55.63
2023-01-03T09:08:27.255Z,59.75
2023-01-03T09:10:58.697Z,59.05
2023-01-03T09:13:31.449Z,58.58
2023-01-03T09:16:04.210Z,67.00
2023-01-03T09:18:34.629Z,67.20
2023-01-03T09:21:06.084Z,63.83
2023-01-03T09:23:37.711Z,62.70
2023-01-03T09:26:08.685Z,57.50
2023-01-03T09:28:41.480Z,62.58
2023-01-03T09:31:11.806Z,54.13
2023-01-03T09:33:42.131Z,55.85
2023-01-03T09:36:12.998Z,58.08
2023-01-03T09:38:43.179Z,52.50
2023-01-03T09:41:17.976Z,52.42
2023-01-03T09:43:54.019Z,49.67
2023-01-03T09:46:26.769Z,44.88
2023-01-03T09:48:58.696Z,53.38
2023-01-03T09:51:44.237Z,51.97
2023-01-03T09:54:28.796Z,49.40
2023-01-03T09:57:11.811Z,41.72
2023-01-03T09:59:57.320Z,37.90
2023-01-03T10:03:04.749Z,33.75
2023-01-03T10:05:57.567Z,37.13
2023-01-03T10:08:40.811Z,33.17
2023-01-03T10:11:14.942Z,32.60
2023-01-03T10:13:59.524Z,33.65
2023-01-03T10:16:44.401Z,33.63
2023-01-03T10:19:35.275Z,30.95
2023-01-03T10:22:12.801Z,34.47
2023-01-03T10:24:48.095Z,38.28
2023-01-03T10:27:22.278Z,37.05
2023-01-03T10:29:56.762Z,30.88
2023-01-03T10:32:51.822Z,34.33
2023-01-03T10:35:24.973Z,34.42
2023-01-03T10:37:56.891Z,31.52
2023-01-03T10:40:37.510Z,29.75
2023-01-03T10:43:13.848Z,33.70
2023-01-03T10:45:55.398Z,32.92
2023-01-03T10:49:00.314Z,29.38
2023-01-03T10:51:35.743Z,31.05
2023-01-03T10:54:15.899Z,32.47
2023-01-03T10:56:56.333Z,26.58
2023-01-03T10:59:29.045Z,23.80
2023-01-03T11:02:04.817Z,30.08
2023-01-03T11:04:35.868Z,32.05
2023-01-03T11:07:17.026Z,25.25
2023-01-03T11:09:52.770Z,28.88
2023-01-03T11:12:31.865Z,27.77
2023-01-03T11:15:02.383Z,30.95
2023-01-03T11:17:34.073Z,29.52
2023-01-03T11:20:06.037Z,28.40
2023-01-03T11:22:44.825Z,29.70
2023-01-03T11:25:39.478Z,27.95
2023-01-03T11:28:41.997Z,36.20
2023-01-03T11:31:19.136Z,29.50
2023-01-03T11:34:00.846Z,31.17
2023-01-03T11:36:43.004Z,32.38
2023-01-03T11:39:31.711Z,30.58
2023-01-03T11:42:20.639Z,29.98
2023-01-03T11:45:15.714Z,30.92
2023-01-03T13:03:37.744Z,29.67
2023-01-03T13:06:18.411Z,27.88
2023-01-03T13:08:53.605Z,29.65
2023-01-03T13:11:29.253Z,32.92
2023-01-03T13:14:05.769Z,30.33
2023-01-03T13:16:46.930Z,30.95
2023-01-03T13:19:49.723Z,26.38
2023-01-03T13:22:50.604Z,33.05
2023-01-03T13:25:40.284Z,29.08
2023-01-03T13:28:34.986Z,28.98
2023-01-03T13:31:49.843Z,26.65
2023-01-03T13:34:36.547Z,25.33
2023-01-03T13:37:46.187Z,28.25
2023-01-03T13:40:52.205Z,27.77
2023-01-03T13:43:21.724Z,24.48
2023-01-03T13:46:06.101Z,25.33
2023-01-03T13:51:51.817Z,22.73
2023-01-03T13:54:55.207Z,21.05
2023-01-03T13:57:40.055Z,21.75
2023-01-03T14:00:22.240Z,21.92
2023-01-03T14:03:21.830Z,20.73
2023-01-03T14:06:39.627Z,19.75
2023-01-03T14:09:33.474Z,22.08
2023-01-03T14:12:30.845Z,22.55
2023-01-03T14:15:24.914Z,21.90
2023-01-03T14:17:59.759Z,19.25
2023-01-03T14:20:35.537Z,24.05
2023-01-03T14:23:31.904Z,20.88
2023-01-03T14:26:08.266Z,22.13
2023-01-03T14:28:38.496Z,19.02
2023-01-03T14:31:21.633Z,19.98
2023-01-03T14:33:56.335Z,21.90
2023-01-03T14:36:26.881Z,20.35
2023-01-03T14:38:59.063Z,20.33
2023-01-03T14:41:33.566Z,21.55
2023-01-03T14:44:07.266Z,26.45
2023-01-03T14:46:42.887Z,22.70
2023-01-03T14:49:24.108Z,20.63
2023-01-03T14:52:01.082Z,24.60
2023-01-03T14:54:32.497Z,25.70
2023-01-03T14:57:05.114Z,29.13
2023-01-03T14:59:38.014Z,24.92
2023-01-03T15:02:14.770Z,25.88
2023-01-03T15:04:46.519Z,22.75
2023-01-03T15:07:36.191Z,28.17
2023-01-03T15:10:19.147Z,26.05
2023-01-03T15:13:00.654Z,27.10
2023-01-03T15:15:39.637Z,25.33
2023-01-03T15:18:20.281Z,26.65
2023-01-03T15:20:54.467Z,25.98
2023-01-03T15:23:36.571Z,24.60
2023-01-03T15:26:07.935Z,29.10
2023-01-03T15:28:40.330Z,29.33
2023-01-03T15:31:24.457Z,30.20
2023-01-03T15:34:19.130Z,33.55
2023-01-03T15:39:23.418Z,37.83
2023-01-03T15:42:42.729Z,33.28
2023-01-03T15:45:02.623Z,46.85
2023-01-03T15:47:34.319Z,58.10
2023-01-03T15:50:09.374Z,51.10
2023-01-03T15:52:42.315Z,51.97
2023-01-03T15:55:15.999Z,57.63
2023-01-03T15:57:54.245Z,48.15
2023-01-03T16:00:27.136Z,39.13
2023-01-03T16:02:57.468Z,40.28
2023-01-03T16:05:30.479Z,39.17
2023-01-03T16:08:00.624Z,38.38
2023-01-03T16:10:32.643Z,47.67
2023-01-03T16:13:02.902Z,43.60
2023-01-03T16:15:33.138Z,41.25
2023-01-03T16:18:03.642Z,46.50
2023-01-03T16:20:36.840Z,44.15
2023-01-03T16:23:07.385Z,42.33
2023-01-03T16:25:40.965Z,41.38
2023-01-03T16:28:12.639Z,36.67
2023-01-03T16:30:43.746Z,35.05
2023-01-03T16:33:21.646Z,29.85
2023-01-03T16:35:54.963Z,31.75
2023-01-03T16:38:25.833Z,31.55
2023-01-03T16:40:59.281Z,37.13
2023-01-03T16:43:30.568Z,31.92
2023-01-03T16:46:02.334Z,31.75
2023-01-03T16:48:40.900Z,38.67
2023-01-03T16:51:20.413Z,46.63
2023-01-03T16:53:51.658Z,40.92
2023-01-03T16:56:21.967Z,37.53
2023-01-03T16:58:52.183Z,46.13
2023-01-03T17:01:23.040Z,44.70
2023-01-03T17:03:53.489Z,39.17
2023-01-03T17:06:37.927Z,38.90
2023-01-03T17:09:16.961Z,33.97
2023-01-03T17:11:47.859Z,44.78
2023-01-03T17:14:20.354Z,47.60
2023-01-03T17:16:51.266Z,49.22
2023-01-03T17:20:02.045Z,45.03
2023-01-03T17:22:19.251Z,42.15
2023-01-03T17:24:50.511Z,38.60
2023-01-03T17:27:27.824Z,36.03
2023-01-03T17:30:06.260Z,40.13
2023-01-03T17:32:37.736Z,47.42
2023-01-03T17:35:08.967Z,38.42
2023-01-03T17:38:14.080Z,40.78
2023-01-03T17:40:35.518Z,44.90
2023-01-03T17:43:06.243Z,36.10
2023-01-03T17:45:48.820Z,38.78
2023-01-03T17:48:31.895Z,41.95
2023-01-03T17:51:03.936Z,39.67
2023-01-03T17:53:36.950Z,40.05
2023-01-03T17:56:07.722Z,44.42
2023-01-03T17:58:40.035Z,41.67
2023-01-03T18:01:11.094Z,45.65
2023-01-03T18:03:41.637Z,34.30
2023-01-03T18:06:17.224Z,36.22
2023-01-03T18:08:50.845Z,34.47
2023-01-03T18:11:28.979Z,39.95
2023-01-03T18:13:59.346Z,35.17
2023-01-03T18:16:29.671Z,40.63
2023-01-03T18:19:00.359Z,39.30
2023-01-03T18:21:30.912Z,35.00
2023-01-03T18:24:06.066Z,32.45
2023-01-03T18:26:37.704Z,34.63
2023-01-03T18:29:09.165Z,38.35
2023-01-03T18:31:39.797Z,37.47
2023-01-03T18:34:10.179Z,37.67
2023-01-03T18:36:43.518Z,35.45
2023-01-03T18:39:21.015Z,32.38
2023-01-03T18:41:51.828Z,36.42
2023-01-03T18:44:26.511Z,42.88
2023-01-03T18:46:56.950Z,42.38
2023-01-03T18:49:27.643Z,38.55
2023-01-03T18:51:58.415Z,40.10
2023-01-03T18:54:31.326Z,60.58
2023-01-03T18:57:01.707Z,48.97
2023-01-03T18:59:32.376Z,30.65
2023-01-03T19:02:02.952Z,25.42
2023-01-03T19:04:33.560Z,29.90
2023-01-03T19:07:03.875Z,27.55
2023-01-03T19:09:37.124Z,28.77
2023-01-03T19:12:10.091Z,28.73
2023-01-03T19:14:46.410Z,27.53
2023-01-03T19:17:18.976Z,23.30
2023-01-03T19:19:49.327Z,24.50
2023-01-03T19:22:27.536Z,23.02
2023-01-03T19:25:05.122Z,25.88
2023-01-03T19:27:40.583Z,24.65
2023-01-03T19:30:21.704Z,27.00
2023-01-03T19:32:57.142Z,21.92
2023-01-03T19:35:27.601Z,26.63
2023-01-03T19:37:57.802Z,22.52
2023-01-03T19:40:36.098Z,27.35
2023-01-03T19:43:06.959Z,21.33
2023-01-03T19:45:39.504Z,22.45
2023-01-03T19:48:19.384Z,29.33
2023-01-03T19:50:50.473Z,25.80
2023-01-03T19:53:21.393Z,24.00
2023-01-03T19:55:55.464Z,22.10
2023-01-03T20:00:58.461Z,21.45
2023-01-03T20:03:31.732Z,24.27
2023-01-03T20:06:02.976Z,20.60
2023-01-03T20:08:33.551Z,23.10
2023-01-03T20:11:07.933Z,26.70
2023-01-03T20:13:38.290Z,20.52
2023-01-03T20:16:09.599Z,21.83
2023-01-03T20:18:41.816Z,23.80
2023-01-03T20:21:22.588Z,23.13
2023-01-03T20:23:57.333Z,21.35
2023-01-03T20:26:32.750Z,25.70
2023-01-03T20:29:03.515Z,22.60
2023-01-03T20:31:34.073Z,23.85
2023-01-03T20:34:06.539Z,22.67
2023-01-03T20:36:43.916Z,20.95
2023-01-03T20:39:27.153Z,26.65
2023-01-03T20:42:03.691Z,28.75
2023-01-03T20:44:34.605Z,30.05
2023-01-03T20:47:10.123Z,27.63
2023-01-03T20:49:44.102Z,29.98
2023-01-03T20:52:25.895Z,34.55
2023-01-03T20:54:56.362Z,33.65
2023-01-03T20:57:30.278Z,33.08
2023-01-03T21:00:02.850Z,30.98
2023-01-03T21:02:34.228Z,34.72
2023-01-03T21:05:04.879Z,41.38
2023-01-03T21:07:47.661Z,35.33
2023-01-03T21:10:26.244Z,32.25
2023-01-03T21:12:59.371Z,32.10
2023-01-03T21:15:29.719Z,25.42
2023-01-03T21:17:59.914Z,28.40
2023-01-03T21:20:33.984Z,26.42
2023-01-03T21:23:08.423Z,32.90
2023-01-03T21:30:47.373Z,28.80
2023-01-03T21:33:21.826Z,40.05
2023-01-03T21:38:26.591Z,35.38
2023-01-03T21:40:57.060Z,32.15
2023-01-03T21:43:29.943Z,29.20
2023-01-03T21:46:00.436Z,36.60
2023-01-03T21:48:30.698Z,36.70
2023-01-03T21:51:02.348Z,30.25
2023-01-03T21:53:35.770Z,31.73
2023-01-03T21:56:09.342Z,33.67
2023-01-03T21:58:42.158Z,30.30
2023-01-03T22:01:18.027Z,33.80
2023-01-03T22:04:01.270Z,31.35
2023-01-03T22:06:31.707Z,29.92
2023-01-03T22:09:04.503Z,28.67
2023-01-03T22:11:34.947Z,29.23
2023-01-03T22:14:07.766Z,28.20
2023-01-03T22:16:38.104Z,26.88
2023-01-03T22:19:10.887Z,30.35
2023-01-03T22:21:41.097Z,29.98
2023-01-03T22:24:11.872Z,24.27
2023-01-03T22:26:42.034Z,27.00
2023-01-03T22:29:14.923Z,22.98
2023-01-03T22:31:45.238Z,31.23
2023-01-03T22:34:15.501Z,28.83
2023-01-03T22:36:45.722Z,30.85
2023-01-03T22:39:16.148Z,24.98
2023-01-03T22:41:46.369Z,27.17
2023-01-03T22:44:19.328Z,23.38
2023-01-03T22:46:49.543Z,28.60
2023-01-03T22:49:19.807Z,25.10
2023-01-03T22:51:49.958Z,27.67
2023-01-03T22:54:20.295Z,29.75
2023-01-03T22:56:50.637Z,24.13
2023-01-03T22:59:23.426Z,27.52
2023-01-03T23:01:54.206Z,29.27
2023-01-03T23:04:26.569Z,28.67
2023-01-03T23:06:57.385Z,30.90
2023-01-03T23:09:29.864Z,27.88
2023-01-03T23:12:12.610Z,22.73
2023-01-03T23:14:45.619Z,21.52
2023-01-03T23:17:28.177Z,24.35
2023-01-03T23:20:02.663Z,22.83
2023-01-03T23:22:33.231Z,23.90
2023-01-03T23:25:03.541Z,21.95
2023-01-03T23:27:33.927Z,22.77
2023-01-03T23:30:08.232Z,23.63
2023-01-03T23:32:39.554Z,21.05
2023-01-03T23:35:10.783Z,23.80
2023-01-03T23:37:41.436Z,25.27
2023-01-03T23:40:14.421Z,24.08
2023-01-03T23:42:45.178Z,24.80
2023-01-03T23:45:17.991Z,24.83
2023-01-03T23:47:48.315Z,25.20
2023-01-03T23:50:23.971Z,25.30
2023-01-03T23:52:54.125Z,26.40
2023-01-03T23:55:24.476Z,36.03
2023-01-03T23:57:55.049Z,38.33
